sensor_id;sensor_type;location;lat;lon;timestamp;temperature;humidity
14095;DHT22;18096;48.142;16.290;2023-02-19T00:01:08;13.80;92.40
14095;DHT22;18096;48.142;16.290;2023-02-19T00:03:34;13.80;92.50
14095;DHT22;18096;48.142;16.290;2023-02-19T00:06:01;13.80;92.50
14095;DHT22;18096;48.142;16.290;2023-02-19T00:08:28;13.80;92.60
14095;DHT22;18096;48.142;16.290;2023-02-19T00:10:53;13.80;92.70
14095;DHT22;18096;48.142;16.290;2023-02-19T00:13:19;13.80;92.70
14095;DHT22;18096;48.142;16.290;2023-02-19T00:15:44;13.80;92.70
14095;DHT22;18096;48.142;16.290;2023-02-19T00:18:10;13.80;92.70
14095;DHT22;18096;48.142;16.290;2023-02-19T00:20:35;13.80;92.80
14095;DHT22;18096;48.142;16.290;2023-02-19T00:23:01;13.80;92.80
14095;DHT22;18096;48.142;16.290;2023-02-19T00:25:26;13.80;93.10
14095;DHT22;18096;48.142;16.290;2023-02-19T00:27:52;13.80;92.90
14095;DHT22;18096;48.142;16.290;2023-02-19T00:30:18;13.80;92.90
14095;DHT22;18096;48.142;16.290;2023-02-19T00:32:48;13.80;92.90
14095;DHT22;18096;48.142;16.290;2023-02-19T00:35:14;13.80;93.00
14095;DHT22;18096;48.142;16.290;2023-02-19T00:37:39;13.80;93.10
14095;DHT22;18096;48.142;16.290;2023-02-19T00:40:05;13.80;93.20
14095;DHT22;18096;48.142;16.290;2023-02-19T00:42:31;13.80;93.20
14095;DHT22;18096;48.142;16.290;2023-02-19T00:44:56;13.80;93.30
14095;DHT22;18096;48.142;16.290;2023-02-19T00:47:22;13.80;93.40
14095;DHT22;18096;48.142;16.290;2023-02-19T00:49:47;13.80;93.70
14095;DHT22;18096;48.142;16.290;2023-02-19T00:52:13;13.80;93.80
14095;DHT22;18096;48.142;16.290;2023-02-19T00:54:38;13.80;94.10
14095;DHT22;18096;48.142;16.290;2023-02-19T00:57:04;13.70;94.20
14095;DHT22;18096;48.142;16.290;2023-02-19T00:59:30;13.70;94.30
14095;DHT22;18096;48.142;16.290;2023-02-19T01:01:56;13.70;94.40
14095;DHT22;18096;48.142;16.290;2023-02-19T01:04:21;13.70;94.60
14095;DHT22;18096;48.142;16.290;2023-02-19T01:06:47;13.60;94.70
14095;DHT22;18096;48.142;16.290;2023-02-19T01:09:13;13.60;94.80
14095;DHT22;18096;48.142;16.290;2023-02-19T01:11:38;13.60;95.00
14095;DHT22;18096;48.142;16.290;2023-02-19T01:14:04;13.60;95.10
14095;DHT22;18096;48.142;16.290;2023-02-19T01:16:29;13.50;95.20
14095;DHT22;18096;48.142;16.290;2023-02-19T01:18:55;13.50;95.30
14095;DHT22;18096;48.142;16.290;2023-02-19T01:21:22;13.50;95.30
14095;DHT22;18096;48.142;16.290;2023-02-19T01:23:48;13.50;95.40
14095;DHT22;18096;48.142;16.290;2023-02-19T01:26:15;13.50;95.60
14095;DHT22;18096;48.142;16.290;2023-02-19T01:28:41;13.50;95.60
14095;DHT22;18096;48.142;16.290;2023-02-19T01:31:07;13.50;95.80
14095;DHT22;18096;48.142;16.290;2023-02-19T01:33:34;13.40;95.90
14095;DHT22;18096;48.142;16.290;2023-02-19T01:36:03;13.40;96.20
14095;DHT22;18096;48.142;16.290;2023-02-19T01:38:29;13.50;96.10
14095;DHT22;18096;48.142;16.290;2023-02-19T01:40:59;13.50;96.20
14095;DHT22;18096;48.142;16.290;2023-02-19T01:43:25;13.40;96.10
14095;DHT22;18096;48.142;16.290;2023-02-19T01:45:51;13.40;96.30
14095;DHT22;18096;48.142;16.290;2023-02-19T01:48:18;13.40;96.40
14095;DHT22;18096;48.142;16.290;2023-02-19T01:50:47;13.30;96.60
14095;DHT22;18096;48.142;16.290;2023-02-19T01:53:14;13.30;96.60
14095;DHT22;18096;48.142;16.290;2023-02-19T01:55:40;13.30;96.80
14095;DHT22;18096;48.142;16.290;2023-02-19T01:58:06;13.30;96.80
14095;DHT22;18096;48.142;16.290;2023-02-19T02:00:33;13.30;96.90
14095;DHT22;18096;48.142;16.290;2023-02-19T02:02:58;13.30;97.00
14095;DHT22;18096;48.142;16.290;2023-02-19T02:05:44;13.30;97.10
14095;DHT22;18096;48.142;16.290;2023-02-19T02:08:11;13.30;97.20
14095;DHT22;18096;48.142;16.290;2023-02-19T02:10:57;13.30;97.30
14095;DHT22;18096;48.142;16.290;2023-02-19T02:13:22;13.20;97.30
14095;DHT22;18096;48.142;16.290;2023-02-19T02:15:58;13.30;97.50
14095;DHT22;18096;48.142;16.290;2023-02-19T02:18:27;13.20;97.50
14095;DHT22;18096;48.142;16.290;2023-02-19T02:31:06;13.20;98.10
14095;DHT22;18096;48.142;16.290;2023-02-19T02:33:39;13.20;98.10
14095;DHT22;18096;48.142;16.290;2023-02-19T02:36:13;13.10;98.20
14095;DHT22;18096;48.142;16.290;2023-02-19T02:38:42;13.10;98.30
14095;DHT22;18096;48.142;16.290;2023-02-19T02:41:08;13.10;98.30
14095;DHT22;18096;48.142;16.290;2023-02-19T02:43:34;13.10;98.40
14095;DHT22;18096;48.142;16.290;2023-02-19T02:45:59;13.10;98.60
14095;DHT22;18096;48.142;16.290;2023-02-19T02:51:02;13.10;99.00
14095;DHT22;18096;48.142;16.290;2023-02-19T02:53:29;13.10;99.30
14095;DHT22;18096;48.142;16.290;2023-02-19T02:56:15;13.00;99.80
14095;DHT22;18096;48.142;16.290;2023-02-19T02:58:41;13.00;99.90
14095;DHT22;18096;48.142;16.290;2023-02-19T03:01:08;13.00;99.90
14095;DHT22;18096;48.142;16.290;2023-02-19T03:03:56;13.00;99.90
14095;DHT22;18096;48.142;16.290;2023-02-19T03:06:24;12.90;99.90
14095;DHT22;18096;48.142;16.290;2023-02-19T03:08:56;12.90;99.90
14095;DHT22;18096;48.142;16.290;2023-02-19T03:11:23;12.80;99.90
14095;DHT22;18096;48.142;16.290;2023-02-19T03:14:13;12.80;99.90
14095;DHT22;18096;48.142;16.290;2023-02-19T03:17:08;12.80;99.90
14095;DHT22;18096;48.142;16.290;2023-02-19T03:19:55;12.80;99.90
14095;DHT22;18096;48.142;16.290;2023-02-19T03:22:21;12.90;99.90
14095;DHT22;18096;48.142;16.290;2023-02-19T03:24:57;12.80;99.90
14095;DHT22;18096;48.142;16.290;2023-02-19T03:27:42;12.80;99.90
14095;DHT22;18096;48.142;16.290;2023-02-19T03:30:17;12.70;99.90
14095;DHT22;18096;48.142;16.290;2023-02-19T03:35:29;12.70;99.90
14095;DHT22;18096;48.142;16.290;2023-02-19T03:38:12;12.70;99.90
14095;DHT22;18096;48.142;16.290;2023-02-19T03:40:44;12.70;99.90
14095;DHT22;18096;48.142;16.290;2023-02-19T03:48:45;12.60;99.90
14095;DHT22;18096;48.142;16.290;2023-02-19T03:51:17;12.60;99.90
14095;DHT22;18096;48.142;16.290;2023-02-19T03:56:15;12.50;99.90
14095;DHT22;18096;48.142;16.290;2023-02-19T03:58:47;12.50;99.90
14095;DHT22;18096;48.142;16.290;2023-02-19T04:01:16;12.50;99.90
14095;DHT22;18096;48.142;16.290;2023-02-19T04:06:22;12.50;99.90
14095;DHT22;18096;48.142;16.290;2023-02-19T04:08:51;12.50;99.90
14095;DHT22;18096;48.142;16.290;2023-02-19T04:11:17;12.50;99.90
14095;DHT22;18096;48.142;16.290;2023-02-19T04:13:48;12.50;99.90
14095;DHT22;18096;48.142;16.290;2023-02-19T04:16:26;12.50;99.90
14095;DHT22;18096;48.142;16.290;2023-02-19T04:18:53;12.50;99.90
14095;DHT22;18096;48.142;16.290;2023-02-19T04:21:19;12.50;99.90
14095;DHT22;18096;48.142;16.290;2023-02-19T04:23:46;12.50;99.90
14095;DHT22;18096;48.142;16.290;2023-02-19T04:26:12;12.50;99.90
14095;DHT22;18096;48.142;16.290;2023-02-19T04:28:39;12.50;99.90
14095;DHT22;18096;48.142;16.290;2023-02-19T04:31:07;12.50;99.90
14095;DHT22;18096;48.142;16.290;2023-02-19T04:33:32;12.50;99.90
14095;DHT22;18096;48.142;16.290;2023-02-19T04:35:58;12.50;99.90
14095;DHT22;18096;48.142;16.290;2023-02-19T04:38:23;12.60;99.90
14095;DHT22;18096;48.142;16.290;2023-02-19T04:40:49;12.50;99.90
14095;DHT22;18096;48.142;16.290;2023-02-19T04:43:16;12.50;99.90
14095;DHT22;18096;48.142;16.290;2023-02-19T04:45:41;12.40;99.90
14095;DHT22;18096;48.142;16.290;2023-02-19T04:48:07;12.40;99.90
14095;DHT22;18096;48.142;16.290;2023-02-19T04:50:33;12.40;99.90
14095;DHT22;18096;48.142;16.290;2023-02-19T04:52:58;12.40;99.90
14095;DHT22;18096;48.142;16.290;2023-02-19T04:55:24;12.40;99.90
14095;DHT22;18096;48.142;16.290;2023-02-19T04:57:49;12.40;99.90
14095;DHT22;18096;48.142;16.290;2023-02-19T05:00:15;12.40;99.90
14095;DHT22;18096;48.142;16.290;2023-02-19T05:02:40;12.30;99.90
14095;DHT22;18096;48.142;16.290;2023-02-19T05:05:06;12.30;99.90
14095;DHT22;18096;48.142;16.290;2023-02-19T05:07:32;12.30;99.90
14095;DHT22;18096;48.142;16.290;2023-02-19T05:09:57;12.20;99.90
14095;DHT22;18096;48.142;16.290;2023-02-19T05:12:24;12.20;99.90
14095;DHT22;18096;48.142;16.290;2023-02-19T05:14:50;12.20;99.90
14095;DHT22;18096;48.142;16.290;2023-02-19T05:17:15;12.30;99.90
14095;DHT22;18096;48.142;16.290;2023-02-19T05:19:41;12.30;99.90
14095;DHT22;18096;48.142;16.290;2023-02-19T05:22:06;12.30;99.90
14095;DHT22;18096;48.142;16.290;2023-02-19T05:24:32;12.40;99.90
14095;DHT22;18096;48.142;16.290;2023-02-19T05:26:57;12.40;99.90
14095;DHT22;18096;48.142;16.290;2023-02-19T05:29:23;12.40;99.90
14095;DHT22;18096;48.142;16.290;2023-02-19T05:31:48;12.40;99.90
14095;DHT22;18096;48.142;16.290;2023-02-19T05:34:14;12.40;99.90
14095;DHT22;18096;48.142;16.290;2023-02-19T05:36:39;12.40;99.90
14095;DHT22;18096;48.142;16.290;2023-02-19T05:39:06;12.40;99.90
14095;DHT22;18096;48.142;16.290;2023-02-19T05:41:32;12.40;99.90
14095;DHT22;18096;48.142;16.290;2023-02-19T05:43:58;12.40;99.90
14095;DHT22;18096;48.142;16.290;2023-02-19T05:46:24;12.40;99.90
14095;DHT22;18096;48.142;16.290;2023-02-19T05:48:50;12.40;99.90
14095;DHT22;18096;48.142;16.290;2023-02-19T05:51:17;12.40;99.90
14095;DHT22;18096;48.142;16.290;2023-02-19T05:53:43;12.30;99.90
14095;DHT22;18096;48.142;16.290;2023-02-19T05:58:50;12.30;99.90
14095;DHT22;18096;48.142;16.290;2023-02-19T06:01:17;12.30;99.90
14095;DHT22;18096;48.142;16.290;2023-02-19T06:03:43;12.30;99.90
14095;DHT22;18096;48.142;16.290;2023-02-19T06:06:10;12.30;99.90
14095;DHT22;18096;48.142;16.290;2023-02-19T06:08:37;12.30;99.90
14095;DHT22;18096;48.142;16.290;2023-02-19T06:11:02;12.30;99.90
14095;DHT22;18096;48.142;16.290;2023-02-19T06:13:28;12.30;99.90
14095;DHT22;18096;48.142;16.290;2023-02-19T06:15:53;12.30;99.90
14095;DHT22;18096;48.142;16.290;2023-02-19T06:18:19;12.30;99.90
14095;DHT22;18096;48.142;16.290;2023-02-19T06:20:44;12.30;99.90
14095;DHT22;18096;48.142;16.290;2023-02-19T06:23:10;12.30;99.90
14095;DHT22;18096;48.142;16.290;2023-02-19T06:25:35;12.30;99.90
14095;DHT22;18096;48.142;16.290;2023-02-19T06:28:01;12.30;99.90
14095;DHT22;18096;48.142;16.290;2023-02-19T06:30:26;12.30;99.90
14095;DHT22;18096;48.142;16.290;2023-02-19T06:32:52;12.30;99.90
14095;DHT22;18096;48.142;16.290;2023-02-19T06:35:18;12.30;99.90
14095;DHT22;18096;48.142;16.290;2023-02-19T06:37:47;12.20;99.90
14095;DHT22;18096;48.142;16.290;2023-02-19T06:40:13;12.40;99.90
14095;DHT22;18096;48.142;16.290;2023-02-19T06:42:38;12.40;99.90
14095;DHT22;18096;48.142;16.290;2023-02-19T06:45:04;12.40;99.90
14095;DHT22;18096;48.142;16.290;2023-02-19T06:47:30;12.40;99.90
14095;DHT22;18096;48.142;16.290;2023-02-19T06:49:56;12.40;99.90
14095;DHT22;18096;48.142;16.290;2023-02-19T06:52:22;12.40;99.90
14095;DHT22;18096;48.142;16.290;2023-02-19T06:54:50;12.40;99.90
14095;DHT22;18096;48.142;16.290;2023-02-19T06:57:16;12.50;99.90
14095;DHT22;18096;48.142;16.290;2023-02-19T06:59:43;12.50;99.90
14095;DHT22;18096;48.142;16.290;2023-02-19T07:02:09;12.50;99.90
14095;DHT22;18096;48.142;16.290;2023-02-19T07:04:35;12.50;99.90
14095;DHT22;18096;48.142;16.290;2023-02-19T07:07:00;12.50;99.90
14095;DHT22;18096;48.142;16.290;2023-02-19T07:09:26;12.60;99.90
14095;DHT22;18096;48.142;16.290;2023-02-19T07:11:52;12.50;99.90
14095;DHT22;18096;48.142;16.290;2023-02-19T07:14:18;12.50;99.90
14095;DHT22;18096;48.142;16.290;2023-02-19T07:16:45;12.50;99.90
14095;DHT22;18096;48.142;16.290;2023-02-19T07:19:11;12.60;99.90
14095;DHT22;18096;48.142;16.290;2023-02-19T07:21:37;12.60;99.90
14095;DHT22;18096;48.142;16.290;2023-02-19T07:24:03;12.60;99.90
14095;DHT22;18096;48.142;16.290;2023-02-19T07:26:29;12.60;99.90
14095;DHT22;18096;48.142;16.290;2023-02-19T07:28:55;12.60;99.90
14095;DHT22;18096;48.142;16.290;2023-02-19T07:31:21;12.60;99.90
14095;DHT22;18096;48.142;16.290;2023-02-19T07:33:46;12.60;99.90
14095;DHT22;18096;48.142;16.290;2023-02-19T07:36:13;12.60;99.90
14095;DHT22;18096;48.142;16.290;2023-02-19T07:38:39;12.60;99.90
14095;DHT22;18096;48.142;16.290;2023-02-19T07:41:04;12.60;99.90
14095;DHT22;18096;48.142;16.290;2023-02-19T07:43:31;12.60;99.90
14095;DHT22;18096;48.142;16.290;2023-02-19T07:45:57;12.60;99.90
14095;DHT22;18096;48.142;16.290;2023-02-19T07:48:23;12.60;99.90
14095;DHT22;18096;48.142;16.290;2023-02-19T07:50:50;12.60;99.90
14095;DHT22;18096;48.142;16.290;2023-02-19T07:53:15;12.60;99.90
14095;DHT22;18096;48.142;16.290;2023-02-19T07:55:41;12.60;99.90
14095;DHT22;18096;48.142;16.290;2023-02-19T07:58:06;12.60;99.90
14095;DHT22;18096;48.142;16.290;2023-02-19T08:00:32;12.60;99.90
14095;DHT22;18096;48.142;16.290;2023-02-19T08:02:57;12.60;99.90
14095;DHT22;18096;48.142;16.290;2023-02-19T08:05:27;12.60;99.90
14095;DHT22;18096;48.142;16.290;2023-02-19T08:07:54;12.70;99.90
14095;DHT22;18096;48.142;16.290;2023-02-19T08:10:20;12.70;99.90
14095;DHT22;18096;48.142;16.290;2023-02-19T08:13:04;12.70;99.90
14095;DHT22;18096;48.142;16.290;2023-02-19T08:15:51;12.70;99.90
14095;DHT22;18096;48.142;16.290;2023-02-19T08:18:17;12.80;99.90
14095;DHT22;18096;48.142;16.290;2023-02-19T08:20:43;12.80;99.90
14095;DHT22;18096;48.142;16.290;2023-02-19T08:23:09;12.80;99.90
14095;DHT22;18096;48.142;16.290;2023-02-19T08:25:35;12.80;99.90
14095;DHT22;18096;48.142;16.290;2023-02-19T08:28:01;12.80;99.90
14095;DHT22;18096;48.142;16.290;2023-02-19T08:30:28;12.70;99.90
14095;DHT22;18096;48.142;16.290;2023-02-19T08:32:53;12.70;99.90
14095;DHT22;18096;48.142;16.290;2023-02-19T08:35:19;12.70;99.90
14095;DHT22;18096;48.142;16.290;2023-02-19T08:37:45;12.70;99.90
14095;DHT22;18096;48.142;16.290;2023-02-19T08:40:10;12.70;99.90
14095;DHT22;18096;48.142;16.290;2023-02-19T08:42:36;12.70;99.90
14095;DHT22;18096;48.142;16.290;2023-02-19T08:45:02;12.70;99.90
14095;DHT22;18096;48.142;16.290;2023-02-19T08:47:28;12.70;99.90
14095;DHT22;18096;48.142;16.290;2023-02-19T08:49:53;12.80;99.90
14095;DHT22;18096;48.142;16.290;2023-02-19T08:52:19;12.80;99.90
14095;DHT22;18096;48.142;16.290;2023-02-19T08:54:44;12.90;99.90
14095;DHT22;18096;48.142;16.290;2023-02-19T08:57:10;12.90;99.90
14095;DHT22;18096;48.142;16.290;2023-02-19T08:59:35;13.00;99.90
14095;DHT22;18096;48.142;16.290;2023-02-19T09:02:01;13.00;99.90
14095;DHT22;18096;48.142;16.290;2023-02-19T09:04:27;13.00;99.90
14095;DHT22;18096;48.142;16.290;2023-02-19T09:06:52;13.00;99.90
14095;DHT22;18096;48.142;16.290;2023-02-19T09:09:18;13.10;99.90
14095;DHT22;18096;48.142;16.290;2023-02-19T09:11:43;13.10;99.90
14095;DHT22;18096;48.142;16.290;2023-02-19T09:14:09;13.00;99.90
14095;DHT22;18096;48.142;16.290;2023-02-19T09:16:35;12.90;99.90
14095;DHT22;18096;48.142;16.290;2023-02-19T09:19:01;12.90;99.90
14095;DHT22;18096;48.142;16.290;2023-02-19T09:21:27;12.80;99.90
14095;DHT22;18096;48.142;16.290;2023-02-19T09:23:52;12.80;99.90
14095;DHT22;18096;48.142;16.290;2023-02-19T09:26:18;12.70;99.90
14095;DHT22;18096;48.142;16.290;2023-02-19T09:28:43;12.70;99.90
14095;DHT22;18096;48.142;16.290;2023-02-19T09:31:10;12.60;99.90
14095;DHT22;18096;48.142;16.290;2023-02-19T09:33:36;12.60;99.90
14095;DHT22;18096;48.142;16.290;2023-02-19T09:36:02;12.60;99.90
14095;DHT22;18096;48.142;16.290;2023-02-19T09:38:28;12.50;99.90
14095;DHT22;18096;48.142;16.290;2023-02-19T09:40:58;12.50;99.90
14095;DHT22;18096;48.142;16.290;2023-02-19T09:43:29;12.50;99.90
14095;DHT22;18096;48.142;16.290;2023-02-19T09:46:00;12.50;99.90
14095;DHT22;18096;48.142;16.290;2023-02-19T09:48:27;12.50;99.90
14095;DHT22;18096;48.142;16.290;2023-02-19T09:50:52;12.50;99.90
14095;DHT22;18096;48.142;16.290;2023-02-19T09:53:20;12.50;99.90
14095;DHT22;18096;48.142;16.290;2023-02-19T09:55:46;12.50;99.90
14095;DHT22;18096;48.142;16.290;2023-02-19T09:58:31;12.50;99.90
14095;DHT22;18096;48.142;16.290;2023-02-19T10:00:59;12.50;99.90
14095;DHT22;18096;48.142;16.290;2023-02-19T10:03:26;12.50;99.90
14095;DHT22;18096;48.142;16.290;2023-02-19T10:06:05;12.60;99.90
14095;DHT22;18096;48.142;16.290;2023-02-19T10:08:33;12.50;99.90
14095;DHT22;18096;48.142;16.290;2023-02-19T10:10:59;12.60;99.90
14095;DHT22;18096;48.142;16.290;2023-02-19T10:13:35;12.60;99.90
14095;DHT22;18096;48.142;16.290;2023-02-19T10:16:03;12.70;99.90
14095;DHT22;18096;48.142;16.290;2023-02-19T10:18:31;12.70;99.90
14095;DHT22;18096;48.142;16.290;2023-02-19T10:20:57;12.80;99.90
14095;DHT22;18096;48.142;16.290;2023-02-19T10:23:24;12.80;99.90
14095;DHT22;18096;48.142;16.290;2023-02-19T10:28:17;12.80;99.90
14095;DHT22;18096;48.142;16.290;2023-02-19T10:30:44;12.90;99.90
14095;DHT22;18096;48.142;16.290;2023-02-19T10:33:13;12.90;99.90
14095;DHT22;18096;48.142;16.290;2023-02-19T10:38:34;13.00;99.90
14095;DHT22;18096;48.142;16.290;2023-02-19T10:41:03;13.00;99.90
14095;DHT22;18096;48.142;16.290;2023-02-19T10:43:31;13.10;99.90
14095;DHT22;18096;48.142;16.290;2023-02-19T10:46:03;13.10;99.90
14095;DHT22;18096;48.142;16.290;2023-02-19T10:48:30;13.20;99.80
14095;DHT22;18096;48.142;16.290;2023-02-19T10:51:14;13.30;99.90
14095;DHT22;18096;48.142;16.290;2023-02-19T10:53:49;13.30;99.20
14095;DHT22;18096;48.142;16.290;2023-02-19T10:56:21;13.30;98.80
14095;DHT22;18096;48.142;16.290;2023-02-19T10:58:48;13.30;98.70
14095;DHT22;18096;48.142;16.290;2023-02-19T11:01:15;13.40;98.60
14095;DHT22;18096;48.142;16.290;2023-02-19T11:03:44;13.50;98.20
14095;DHT22;18096;48.142;16.290;2023-02-19T11:06:10;13.60;98.30
14095;DHT22;18096;48.142;16.290;2023-02-19T11:11:35;13.60;98.10
14095;DHT22;18096;48.142;16.290;2023-02-19T11:14:14;13.60;98.00
14095;DHT22;18096;48.142;16.290;2023-02-19T11:16:48;13.60;97.80
14095;DHT22;18096;48.142;16.290;2023-02-19T11:21:45;13.60;97.40
14095;DHT22;18096;48.142;16.290;2023-02-19T11:24:17;13.60;97.50
14095;DHT22;18096;48.142;16.290;2023-02-19T11:26:45;13.60;97.70
14095;DHT22;18096;48.142;16.290;2023-02-19T11:29:15;13.70;97.40
14095;DHT22;18096;48.142;16.290;2023-02-19T11:31:42;13.70;97.50
14095;DHT22;18096;48.142;16.290;2023-02-19T11:36:40;13.80;97.00
14095;DHT22;18096;48.142;16.290;2023-02-19T11:52:11;14.00;96.70
14095;DHT22;18096;48.142;16.290;2023-02-19T11:54:55;14.00;96.60
14095;DHT22;18096;48.142;16.290;2023-02-19T12:02:47;13.90;96.30
14095;DHT22;18096;48.142;16.290;2023-02-19T12:05:21;13.90;96.20
14095;DHT22;18096;48.142;16.290;2023-02-19T12:13:17;13.80;96.30
14095;DHT22;18096;48.142;16.290;2023-02-19T12:26:01;13.60;96.60
14095;DHT22;18096;48.142;16.290;2023-02-19T12:36:56;13.60;96.00
14095;DHT22;18096;48.142;16.290;2023-02-19T12:39:43;13.60;95.50
14095;DHT22;18096;48.142;16.290;2023-02-19T12:44:55;13.70;95.20
14095;DHT22;18096;48.142;16.290;2023-02-19T12:47:22;13.70;95.10
14095;DHT22;18096;48.142;16.290;2023-02-19T12:49:53;13.70;95.00
14095;DHT22;18096;48.142;16.290;2023-02-19T12:52:24;13.70;95.30
14095;DHT22;18096;48.142;16.290;2023-02-19T12:54:52;13.70;95.20
14095;DHT22;18096;48.142;16.290;2023-02-19T12:57:25;13.70;95.60
14095;DHT22;18096;48.142;16.290;2023-02-19T13:00:15;13.70;95.50
14095;DHT22;18096;48.142;16.290;2023-02-19T13:02:44;13.80;95.10
14095;DHT22;18096;48.142;16.290;2023-02-19T13:05:24;13.80;95.10
14095;DHT22;18096;48.142;16.290;2023-02-19T13:10:29;13.90;94.70
14095;DHT22;18096;48.142;16.290;2023-02-19T13:12:57;13.90;94.40
14095;DHT22;18096;48.142;16.290;2023-02-19T13:15:30;13.90;93.90
14095;DHT22;18096;48.142;16.290;2023-02-19T13:17:57;13.90;93.60
14095;DHT22;18096;48.142;16.290;2023-02-19T13:20:42;13.90;93.10
14095;DHT22;18096;48.142;16.290;2023-02-19T13:23:15;13.90;93.10
14095;DHT22;18096;48.142;16.290;2023-02-19T13:31:15;13.90;92.70
14095;DHT22;18096;48.142;16.290;2023-02-19T13:36:30;13.90;92.60
14095;DHT22;18096;48.142;16.290;2023-02-19T13:38:56;13.90;92.70
14095;DHT22;18096;48.142;16.290;2023-02-19T13:41:36;13.80;92.60
14095;DHT22;18096;48.142;16.290;2023-02-19T13:44:04;13.80;92.60
14095;DHT22;18096;48.142;16.290;2023-02-19T13:46:35;13.80;93.10
14095;DHT22;18096;48.142;16.290;2023-02-19T13:51:50;13.70;92.50
14095;DHT22;18096;48.142;16.290;2023-02-19T13:54:29;13.60;92.70
14095;DHT22;18096;48.142;16.290;2023-02-19T13:59:39;13.40;92.80
14095;DHT22;18096;48.142;16.290;2023-02-19T14:02:09;13.40;93.60
14095;DHT22;18096;48.142;16.290;2023-02-19T14:04:45;13.30;93.50
14095;DHT22;18096;48.142;16.290;2023-02-19T14:19:49;13.10;93.80
14095;DHT22;18096;48.142;16.290;2023-02-19T14:25:00;13.00;93.50
14095;DHT22;18096;48.142;16.290;2023-02-19T14:27:27;12.90;93.50
14095;DHT22;18096;48.142;16.290;2023-02-19T14:29:52;12.90;93.60
14095;DHT22;18096;48.142;16.290;2023-02-19T14:32:18;12.90;93.70
14095;DHT22;18096;48.142;16.290;2023-02-19T14:34:44;12.80;93.70
14095;DHT22;18096;48.142;16.290;2023-02-19T14:37:18;12.80;94.00
14095;DHT22;18096;48.142;16.290;2023-02-19T14:39:45;12.80;94.40
14095;DHT22;18096;48.142;16.290;2023-02-19T14:44:45;12.70;95.70
14095;DHT22;18096;48.142;16.290;2023-02-19T14:47:15;12.60;96.30
14095;DHT22;18096;48.142;16.290;2023-02-19T14:52:24;12.50;97.10
14095;DHT22;18096;48.142;16.290;2023-02-19T14:57:19;12.30;98.10
14095;DHT22;18096;48.142;16.290;2023-02-19T14:59:56;12.20;98.60
14095;DHT22;18096;48.142;16.290;2023-02-19T15:02:28;12.20;99.60
14095;DHT22;18096;48.142;16.290;2023-02-19T15:04:55;12.10;99.80
14095;DHT22;18096;48.142;16.290;2023-02-19T15:07:26;12.10;99.90
14095;DHT22;18096;48.142;16.290;2023-02-19T15:09:53;12.00;99.90
14095;DHT22;18096;48.142;16.290;2023-02-19T15:12:22;12.00;99.90
14095;DHT22;18096;48.142;16.290;2023-02-19T15:14:49;11.90;99.90
14095;DHT22;18096;48.142;16.290;2023-02-19T15:17:26;11.90;99.90
14095;DHT22;18096;48.142;16.290;2023-02-19T15:19:52;11.80;99.90
14095;DHT22;18096;48.142;16.290;2023-02-19T15:22:21;11.70;99.90
14095;DHT22;18096;48.142;16.290;2023-02-19T15:24:47;11.70;99.90
14095;DHT22;18096;48.142;16.290;2023-02-19T15:27:17;11.60;99.90
14095;DHT22;18096;48.142;16.290;2023-02-19T15:29:45;11.50;99.90
14095;DHT22;18096;48.142;16.290;2023-02-19T15:32:18;11.50;99.90
14095;DHT22;18096;48.142;16.290;2023-02-19T15:34:59;11.40;99.90
14095;DHT22;18096;48.142;16.290;2023-02-19T15:37:26;11.40;99.90
14095;DHT22;18096;48.142;16.290;2023-02-19T15:39:54;11.30;99.90
14095;DHT22;18096;48.142;16.290;2023-02-19T15:42:27;11.30;99.90
14095;DHT22;18096;48.142;16.290;2023-02-19T15:45:04;11.30;99.90
14095;DHT22;18096;48.142;16.290;2023-02-19T15:47:36;11.20;99.90
14095;DHT22;18096;48.142;16.290;2023-02-19T15:50:15;11.10;99.90
14095;DHT22;18096;48.142;16.290;2023-02-19T15:55:12;10.80;99.90
14095;DHT22;18096;48.142;16.290;2023-02-19T15:57:45;10.80;99.90
14095;DHT22;18096;48.142;16.290;2023-02-19T16:02:44;10.50;99.90
14095;DHT22;18096;48.142;16.290;2023-02-19T16:05:13;10.30;99.90
14095;DHT22;18096;48.142;16.290;2023-02-19T16:07:41;10.20;99.90
14095;DHT22;18096;48.142;16.290;2023-02-19T16:10:18;10.20;99.90
14095;DHT22;18096;48.142;16.290;2023-02-19T16:12:58;10.10;99.90
14095;DHT22;18096;48.142;16.290;2023-02-19T16:15:25;10.10;99.90
14095;DHT22;18096;48.142;16.290;2023-02-19T16:17:54;10.10;99.90
14095;DHT22;18096;48.142;16.290;2023-02-19T16:20:53;10.10;99.90
14095;DHT22;18096;48.142;16.290;2023-02-19T16:23:13;10.10;99.90
14095;DHT22;18096;48.142;16.290;2023-02-19T16:25:40;10.00;99.90
14095;DHT22;18096;48.142;16.290;2023-02-19T16:28:20;9.90;99.90
14095;DHT22;18096;48.142;16.290;2023-02-19T16:30:57;9.90;99.90
14095;DHT22;18096;48.142;16.290;2023-02-19T16:35:57;9.80;99.90
14095;DHT22;18096;48.142;16.290;2023-02-19T16:38:40;9.80;99.90
14095;DHT22;18096;48.142;16.290;2023-02-19T16:41:10;9.70;99.90
14095;DHT22;18096;48.142;16.290;2023-02-19T16:43:40;9.70;99.90
14095;DHT22;18096;48.142;16.290;2023-02-19T16:46:07;9.60;99.90
14095;DHT22;18096;48.142;16.290;2023-02-19T16:48:34;9.60;99.90
14095;DHT22;18096;48.142;16.290;2023-02-19T16:51:00;9.60;99.90
14095;DHT22;18096;48.142;16.290;2023-02-19T16:53:27;9.60;99.90
14095;DHT22;18096;48.142;16.290;2023-02-19T16:55:53;9.60;99.90
14095;DHT22;18096;48.142;16.290;2023-02-19T16:58:19;9.60;99.90
14095;DHT22;18096;48.142;16.290;2023-02-19T17:00:46;9.60;99.90
14095;DHT22;18096;48.142;16.290;2023-02-19T17:03:13;9.50;99.90
14095;DHT22;18096;48.142;16.290;2023-02-19T17:05:40;9.50;99.90
14095;DHT22;18096;48.142;16.290;2023-02-19T17:08:52;9.50;99.90
14095;DHT22;18096;48.142;16.290;2023-02-19T17:10:52;9.50;99.90
14095;DHT22;18096;48.142;16.290;2023-02-19T17:13:18;9.50;99.90
14095;DHT22;18096;48.142;16.290;2023-02-19T17:15:44;9.50;99.90
14095;DHT22;18096;48.142;16.290;2023-02-19T17:18:10;9.50;99.90
14095;DHT22;18096;48.142;16.290;2023-02-19T17:20:37;9.40;99.90
14095;DHT22;18096;48.142;16.290;2023-02-19T17:23:06;9.40;99.90
14095;DHT22;18096;48.142;16.290;2023-02-19T17:25:32;9.40;99.90
14095;DHT22;18096;48.142;16.290;2023-02-19T17:27:59;9.50;99.90
14095;DHT22;18096;48.142;16.290;2023-02-19T17:30:26;9.50;99.90
14095;DHT22;18096;48.142;16.290;2023-02-19T17:32:53;9.50;99.90
14095;DHT22;18096;48.142;16.290;2023-02-19T17:35:19;9.50;99.90
14095;DHT22;18096;48.142;16.290;2023-02-19T17:37:46;9.50;99.90
14095;DHT22;18096;48.142;16.290;2023-02-19T17:40:20;9.40;99.90